sensor_id;sensor_type;location;lat;lon;timestamp;pressure;altitude;pressure_sealevel;temperature;humidity
8581;BME280;4328;48.622;9.230;2024-03-08T00:01:55;97906.84;;;0.43;100.00
8581;BME280;4328;48.622;9.230;2024-03-08T00:04:21;97899.34;;;0.37;100.00
8581;BME280;4328;48.622;9.230;2024-03-08T00:06:48;97893.81;;;0.29;100.00
8581;BME280;4328;48.622;9.230;2024-03-08T00:09:16;97877.41;;;0.13;100.00
8581;BME280;4328;48.622;9.230;2024-03-08T00:11:42;97892.66;;;0.22;100.00
8581;BME280;4328;48.622;9.230;2024-03-08T00:14:09;97890.25;;;0.19;100.00
8581;BME280;4328;48.622;9.230;2024-03-08T00:16:35;97892.31;;;0.15;100.00
8581;BME280;4328;48.622;9.230;2024-03-08T00:19:03;97894.63;;;0.20;100.00
8581;BME280;4328;48.622;9.230;2024-03-08T00:21:30;97886.84;;;0.17;100.00
8581;BME280;4328;48.622;9.230;2024-03-08T00:23:56;97890.91;;;0.11;100.00
8581;BME280;4328;48.622;9.230;2024-03-08T00:26:23;97891.66;;;0.02;100.00
8581;BME280;4328;48.622;9.230;2024-03-08T00:28:50;97892.78;;;-0.01;100.00
8581;BME280;4328;48.622;9.230;2024-03-08T00:31:16;97898.34;;;-0.04;100.00
8581;BME280;4328;48.622;9.230;2024-03-08T00:33:43;97883.66;;;0.02;100.00
8581;BME280;4328;48.622;9.230;2024-03-08T00:36:11;97875.81;;;-0.11;100.00
8581;BME280;4328;48.622;9.230;2024-03-08T00:38:37;97880.59;;;-0.14;100.00
8581;BME280;4328;48.622;9.230;2024-03-08T00:41:04;97872.09;;;-0.19;100.00
8581;BME280;4328;48.622;9.230;2024-03-08T00:43:30;97864.13;;;-0.19;100.00
8581;BME280;4328;48.622;9.230;2024-03-08T00:45:57;97869.69;;;-0.22;100.00
8581;BME280;4328;48.622;9.230;2024-03-08T00:48:24;97866.47;;;-0.26;100.00
8581;BME280;4328;48.622;9.230;2024-03-08T00:50:50;97848.81;;;-0.38;100.00
8581;BME280;4328;48.622;9.230;2024-03-08T00:53:19;97872.75;;;-0.27;100.00
8581;BME280;4328;48.622;9.230;2024-03-08T00:55:46;97865.00;;;-0.30;100.00
8581;BME280;4328;48.622;9.230;2024-03-08T00:58:12;97864.75;;;-0.27;100.00
8581;BME280;4328;48.622;9.230;2024-03-08T01:00:39;97867.53;;;-0.28;100.00
8581;BME280;4328;48.622;9.230;2024-03-08T01:03:05;97866.00;;;-0.42;100.00
8581;BME280;4328;48.622;9.230;2024-03-08T01:05:32;97847.53;;;-0.55;100.00
8581;BME280;4328;48.622;9.230;2024-03-08T01:07:59;97859.75;;;-0.52;100.00
8581;BME280;4328;48.622;9.230;2024-03-08T01:10:26;97848.84;;;-0.49;100.00
8581;BME280;4328;48.622;9.230;2024-03-08T01:12:53;97858.56;;;-0.59;100.00
8581;BME280;4328;48.622;9.230;2024-03-08T01:15:22;97852.50;;;-0.61;100.00
8581;BME280;4328;48.622;9.230;2024-03-08T01:17:48;97851.06;;;-0.65;100.00
8581;BME280;4328;48.622;9.230;2024-03-08T01:20:15;97839.34;;;-0.74;100.00
8581;BME280;4328;48.622;9.230;2024-03-08T01:22:43;97843.56;;;-0.60;100.00
8581;BME280;4328;48.622;9.230;2024-03-08T01:25:09;97839.44;;;-0.64;100.00
8581;BME280;4328;48.622;9.230;2024-03-08T01:27:37;97842.84;;;-0.62;100.00
8581;BME280;4328;48.622;9.230;2024-03-08T01:30:05;97830.59;;;-0.65;100.00
8581;BME280;4328;48.622;9.230;2024-03-08T01:32:32;97837.88;;;-0.67;100.00
8581;BME280;4328;48.622;9.230;2024-03-08T01:34:58;97833.28;;;-0.65;100.00
8581;BME280;4328;48.622;9.230;2024-03-08T01:37:25;97831.81;;;-0.69;100.00
8581;BME280;4328;48.622;9.230;2024-03-08T01:39:52;97824.22;;;-0.74;100.00
8581;BME280;4328;48.622;9.230;2024-03-08T01:42:18;97816.47;;;-0.77;100.00
8581;BME280;4328;48.622;9.230;2024-03-08T01:44:46;97818.28;;;-0.77;100.00
8581;BME280;4328;48.622;9.230;2024-03-08T01:47:13;97807.31;;;-0.84;100.00
8581;BME280;4328;48.622;9.230;2024-03-08T01:49:39;97805.34;;;-0.82;100.00
8581;BME280;4328;48.622;9.230;2024-03-08T01:52:06;97800.28;;;-0.85;100.00
8581;BME280;4328;48.622;9.230;2024-03-08T01:54:33;97802.00;;;-0.84;100.00
8581;BME280;4328;48.622;9.230;2024-03-08T01:57:01;97796.91;;;-0.87;100.00
8581;BME280;4328;48.622;9.230;2024-03-08T01:59:28;97800.28;;;-0.85;100.00
8581;BME280;4328;48.622;9.230;2024-03-08T02:02:00;97797.34;;;-0.82;100.00
8581;BME280;4328;48.622;9.230;2024-03-08T02:04:28;97788.19;;;-0.89;100.00
8581;BME280;4328;48.622;9.230;2024-03-08T02:06:55;97783.59;;;-0.87;100.00
8581;BME280;4328;48.622;9.230;2024-03-08T02:09:23;97787.72;;;-0.94;100.00
8581;BME280;4328;48.622;9.230;2024-03-08T02:11:50;97779.72;;;-0.94;100.00
8581;BME280;4328;48.622;9.230;2024-03-08T02:14:18;97783.38;;;-0.95;100.00
8581;BME280;4328;48.622;9.230;2024-03-08T02:16:45;97779.28;;;-0.99;100.00
8581;BME280;4328;48.622;9.230;2024-03-08T02:19:13;97774.91;;;-1.00;100.00
8581;BME280;4328;48.622;9.230;2024-03-08T02:21:40;97761.13;;;-1.05;100.00
8581;BME280;4328;48.622;9.230;2024-03-08T02:24:07;97759.78;;;-0.99;100.00
8581;BME280;4328;48.622;9.230;2024-03-08T02:26:34;97767.28;;;-1.04;100.00
8581;BME280;4328;48.622;9.230;2024-03-08T02:29:01;97752.69;;;-1.10;100.00
8581;BME280;4328;48.622;9.230;2024-03-08T02:31:28;97766.59;;;-1.18;100.00
8581;BME280;4328;48.622;9.230;2024-03-08T02:33:54;97755.72;;;-1.15;100.00
8581;BME280;4328;48.622;9.230;2024-03-08T02:36:21;97750.63;;;-1.18;100.00
8581;BME280;4328;48.622;9.230;2024-03-08T02:38:49;97754.84;;;-1.15;100.00
8581;BME280;4328;48.622;9.230;2024-03-08T02:41:14;97753.16;;;-1.16;100.00
8581;BME280;4328;48.622;9.230;2024-03-08T02:43:41;97750.53;;;-1.27;100.00
8581;BME280;4328;48.622;9.230;2024-03-08T02:46:07;97735.56;;;-1.39;100.00
8581;BME280;4328;48.622;9.230;2024-03-08T02:48:35;97748.38;;;-1.33;100.00
8581;BME280;4328;48.622;9.230;2024-03-08T02:51:02;97749.56;;;-1.37;100.00
8581;BME280;4328;48.622;9.230;2024-03-08T02:53:28;97739.91;;;-1.38;100.00
8581;BME280;4328;48.622;9.230;2024-03-08T02:55:56;97746.19;;;-1.39;100.00
8581;BME280;4328;48.622;9.230;2024-03-08T02:58:23;97744.13;;;-1.36;100.00
8581;BME280;4328;48.622;9.230;2024-03-08T03:00:49;97744.03;;;-1.34;100.00
8581;BME280;4328;48.622;9.230;2024-03-08T03:03:16;97735.06;;;-1.33;100.00
8581;BME280;4328;48.622;9.230;2024-03-08T03:05:42;97735.31;;;-1.36;100.00
8581;BME280;4328;48.622;9.230;2024-03-08T03:08:10;97736.41;;;-1.39;100.00
8581;BME280;4328;48.622;9.230;2024-03-08T03:10:37;97725.63;;;-1.37;100.00
8581;BME280;4328;48.622;9.230;2024-03-08T03:13:05;97732.78;;;-1.38;100.00
8581;BME280;4328;48.622;9.230;2024-03-08T03:15:32;97733.28;;;-1.44;100.00
8581;BME280;4328;48.622;9.230;2024-03-08T03:17:59;97733.16;;;-1.42;100.00
8581;BME280;4328;48.622;9.230;2024-03-08T03:20:25;97726.25;;;-1.45;100.00
8581;BME280;4328;48.622;9.230;2024-03-08T03:22:57;97727.34;;;-1.48;100.00
8581;BME280;4328;48.622;9.230;2024-03-08T03:25:26;97723.59;;;-1.45;100.00
8581;BME280;4328;48.622;9.230;2024-03-08T03:27:58;97720.22;;;-1.47;100.00
8581;BME280;4328;48.622;9.230;2024-03-08T03:30:26;97719.25;;;-1.46;100.00
8581;BME280;4328;48.622;9.230;2024-03-08T03:32:56;97714.19;;;-1.49;100.00
8581;BME280;4328;48.622;9.230;2024-03-08T03:35:25;97708.97;;;-1.51;100.00
8581;BME280;4328;48.622;9.230;2024-03-08T03:37:52;97708.53;;;-1.56;100.00
8581;BME280;4328;48.622;9.230;2024-03-08T03:40:31;97706.09;;;-1.59;100.00
8581;BME280;4328;48.622;9.230;2024-03-08T03:42:57;97711.06;;;-1.65;100.00
8581;BME280;4328;48.622;9.230;2024-03-08T03:45:25;97709.38;;;-1.66;100.00
8581;BME280;4328;48.622;9.230;2024-03-08T03:47:52;97711.66;;;-1.73;100.00
8581;BME280;4328;48.622;9.230;2024-03-08T03:50:19;97678.31;;;-1.88;100.00
8581;BME280;4328;48.622;9.230;2024-03-08T03:52:45;97710.34;;;-1.67;100.00
8581;BME280;4328;48.622;9.230;2024-03-08T03:55:12;97706.00;;;-1.68;100.00
8581;BME280;4328;48.622;9.230;2024-03-08T03:57:39;97708.16;;;-1.73;100.00
8581;BME280;4328;48.622;9.230;2024-03-08T04:00:06;97684.47;;;-1.88;100.00
8581;BME280;4328;48.622;9.230;2024-03-08T04:02:37;97706.22;;;-1.83;100.00
8581;BME280;4328;48.622;9.230;2024-03-08T04:05:04;97701.38;;;-1.89;100.00
8581;BME280;4328;48.622;9.230;2024-03-08T04:07:31;97704.53;;;-1.95;100.00
8581;BME280;4328;48.622;9.230;2024-03-08T04:09:57;97693.78;;;-1.93;100.00
8581;BME280;4328;48.622;9.230;2024-03-08T04:12:24;97701.16;;;-1.86;100.00
8581;BME280;4328;48.622;9.230;2024-03-08T04:14:51;97697.53;;;-1.85;100.00
8581;BME280;4328;48.622;9.230;2024-03-08T04:17:18;97693.91;;;-1.84;100.00
8581;BME280;4328;48.622;9.230;2024-03-08T04:19:46;97689.44;;;-1.83;100.00
8581;BME280;4328;48.622;9.230;2024-03-08T04:22:13;97688.25;;;-1.90;100.00
8581;BME280;4328;48.622;9.230;2024-03-08T04:24:40;97683.28;;;-1.95;100.00
8581;BME280;4328;48.622;9.230;2024-03-08T04:27:06;97695.94;;;-1.98;100.00
8581;BME280;4328;48.622;9.230;2024-03-08T04:29:34;97690.53;;;-1.97;100.00
8581;BME280;4328;48.622;9.230;2024-03-08T04:32:02;97687.50;;;-1.92;100.00
8581;BME280;4328;48.622;9.230;2024-03-08T04:34:29;97688.81;;;-1.87;100.00
8581;BME280;4328;48.622;9.230;2024-03-08T04:36:58;97688.34;;;-1.92;100.00
8581;BME280;4328;48.622;9.230;2024-03-08T04:39:24;97687.88;;;-1.97;100.00
8581;BME280;4328;48.622;9.230;2024-03-08T04:41:53;97677.72;;;-2.03;100.00
8581;BME280;4328;48.622;9.230;2024-03-08T04:44:21;97684.59;;;-2.00;100.00
8581;BME280;4328;48.622;9.230;2024-03-08T04:46:49;97684.00;;;-2.04;100.00
8581;BME280;4328;48.622;9.230;2024-03-08T04:49:16;97678.81;;;-2.05;100.00
8581;BME280;4328;48.622;9.230;2024-03-08T04:51:43;97675.19;;;-2.04;100.00
8581;BME280;4328;48.622;9.230;2024-03-08T04:54:11;97676.88;;;-2.03;100.00
8581;BME280;4328;48.622;9.230;2024-03-08T04:56:38;97663.72;;;-2.05;100.00
8581;BME280;4328;48.622;9.230;2024-03-08T04:59:05;97669.88;;;-2.04;100.00
8581;BME280;4328;48.622;9.230;2024-03-08T05:01:33;97670.13;;;-2.07;100.00
8581;BME280;4328;48.622;9.230;2024-03-08T05:04:01;97670.72;;;-2.04;100.00
8581;BME280;4328;48.622;9.230;2024-03-08T05:06:28;97659.88;;;-2.01;100.00
8581;BME280;4328;48.622;9.230;2024-03-08T05:08:55;97668.31;;;-1.96;100.00
8581;BME280;4328;48.622;9.230;2024-03-08T05:11:23;97662.63;;;-2.02;100.00
8581;BME280;4328;48.622;9.230;2024-03-08T05:13:50;97663.00;;;-2.07;100.00
8581;BME280;4328;48.622;9.230;2024-03-08T05:16:17;97670.34;;;-2.10;100.00
8581;BME280;4328;48.622;9.230;2024-03-08T05:18:43;97669.25;;;-2.08;100.00
8581;BME280;4328;48.622;9.230;2024-03-08T05:21:12;97664.06;;;-2.09;100.00
8581;BME280;4328;48.622;9.230;2024-03-08T05:23:38;97657.78;;;-2.08;100.00
8581;BME280;4328;48.622;9.230;2024-03-08T05:26:05;97664.78;;;-2.07;100.00
8581;BME280;4328;48.622;9.230;2024-03-08T05:28:33;97652.13;;;-2.04;100.00
8581;BME280;4328;48.622;9.230;2024-03-08T05:30:59;97657.78;;;-2.08;100.00
8581;BME280;4328;48.622;9.230;2024-03-08T05:33:26;97655.38;;;-2.11;100.00
8581;BME280;4328;48.622;9.230;2024-03-08T05:35:53;97659.13;;;-2.14;100.00
8581;BME280;4328;48.622;9.230;2024-03-08T05:38:19;97659.59;;;-2.09;100.00
8581;BME280;4328;48.622;9.230;2024-03-08T05:40:46;97657.78;;;-2.08;100.00
8581;BME280;4328;48.622;9.230;2024-03-08T05:43:13;97663.09;;;-1.97;100.00
8581;BME280;4328;48.622;9.230;2024-03-08T05:45:44;97660.09;;;-1.93;100.00
8581;BME280;4328;48.622;9.230;2024-03-08T05:48:10;97668.19;;;-1.83;100.00
8581;BME280;4328;48.622;9.230;2024-03-08T05:50:38;97656.69;;;-1.72;100.00
8581;BME280;4328;48.622;9.230;2024-03-08T05:53:04;97657.63;;;-1.62;100.00
8581;BME280;4328;48.622;9.230;2024-03-08T05:55:31;97657.06;;;-1.66;100.00
8581;BME280;4328;48.622;9.230;2024-03-08T05:58:00;97654.75;;;-1.70;100.00
8581;BME280;4328;48.622;9.230;2024-03-08T06:00:26;97658.16;;;-1.68;100.00
8581;BME280;4328;48.622;9.230;2024-03-08T06:02:54;97649.09;;;-1.66;100.00
8581;BME280;4328;48.622;9.230;2024-03-08T06:05:21;97649.78;;;-1.64;100.00
8581;BME280;4328;48.622;9.230;2024-03-08T06:07:50;97649.66;;;-1.51;100.00
8581;BME280;4328;48.622;9.230;2024-03-08T06:10:18;97653.25;;;-1.41;100.00
8581;BME280;4328;48.622;9.230;2024-03-08T06:12:45;97649.09;;;-1.23;100.00
8581;BME280;4328;48.622;9.230;2024-03-08T06:15:11;97652.31;;;-1.08;100.00
8581;BME280;4328;48.622;9.230;2024-03-08T06:17:39;97649.22;;;-0.92;100.00
8581;BME280;4328;48.622;9.230;2024-03-08T06:20:08;97648.06;;;-0.79;100.00
8581;BME280;4328;48.622;9.230;2024-03-08T06:22:38;97652.16;;;-0.75;100.00
8581;BME280;4328;48.622;9.230;2024-03-08T06:25:06;97644.63;;;-0.69;100.00
8581;BME280;4328;48.622;9.230;2024-03-08T06:27:33;97639.59;;;-0.73;100.00
8581;BME280;4328;48.622;9.230;2024-03-08T06:29:59;97650.72;;;-0.58;100.00
8581;BME280;4328;48.622;9.230;2024-03-08T06:32:26;97634.63;;;-0.56;100.00
8581;BME280;4328;48.622;9.230;2024-03-08T06:34:52;97648.09;;;-0.37;100.00
8581;BME280;4328;48.622;9.230;2024-03-08T06:37:19;97654.44;;;-0.28;100.00
8581;BME280;4328;48.622;9.230;2024-03-08T06:39:47;97660.34;;;-0.25;100.00
8581;BME280;4328;48.622;9.230;2024-03-08T06:42:13;97652.91;;;-0.21;100.00
8581;BME280;4328;48.622;9.230;2024-03-08T06:44:40;97647.78;;;-0.13;100.00
8581;BME280;4328;48.622;9.230;2024-03-08T06:47:14;97642.66;;;0.05;100.00
8581;BME280;4328;48.622;9.230;2024-03-08T06:49:41;97645.25;;;0.16;100.00
8581;BME280;4328;48.622;9.230;2024-03-08T06:52:07;97654.16;;;0.35;100.00
8581;BME280;4328;48.622;9.230;2024-03-08T06:54:36;97642.13;;;0.51;100.00
8581;BME280;4328;48.622;9.230;2024-03-08T06:57:02;97648.19;;;0.62;100.00
8581;BME280;4328;48.622;9.230;2024-03-08T06:59:30;97640.06;;;0.73;100.00
8581;BME280;4328;48.622;9.230;2024-03-08T07:01:57;97638.41;;;0.92;100.00
8581;BME280;4328;48.622;9.230;2024-03-08T07:04:24;97641.66;;;1.05;100.00
8581;BME280;4328;48.622;9.230;2024-03-08T07:06:54;97638.00;;;1.16;100.00
8581;BME280;4328;48.622;9.230;2024-03-08T07:09:20;97630.84;;;1.16;100.00
8581;BME280;4328;48.622;9.230;2024-03-08T07:11:48;97632.50;;;1.36;100.00
8581;BME280;4328;48.622;9.230;2024-03-08T07:14:20;97633.63;;;1.34;100.00
8581;BME280;4328;48.622;9.230;2024-03-08T07:16:47;97624.38;;;1.28;100.00
8581;BME280;4328;48.622;9.230;2024-03-08T07:19:14;97631.50;;;1.47;100.00
8581;BME280;4328;48.622;9.230;2024-03-08T07:21:40;97579.09;;;1.36;100.00
8581;BME280;4328;48.622;9.230;2024-03-08T07:24:07;97632.75;;;1.72;100.00
8581;BME280;4328;48.622;9.230;2024-03-08T07:26:51;97623.66;;;1.92;100.00
8581;BME280;4328;48.622;9.230;2024-03-08T07:29:17;97627.16;;;2.02;100.00
8581;BME280;4328;48.622;9.230;2024-03-08T07:31:44;97627.28;;;2.10;100.00
8581;BME280;4328;48.622;9.230;2024-03-08T07:34:16;97625.97;;;2.14;100.00
8581;BME280;4328;48.622;9.230;2024-03-08T07:36:42;97618.88;;;2.33;100.00
8581;BME280;4328;48.622;9.230;2024-03-08T07:39:09;97619.38;;;2.46;100.00
8581;BME280;4328;48.622;9.230;2024-03-08T07:41:37;97608.47;;;2.57;100.00
8581;BME280;4328;48.622;9.230;2024-03-08T07:44:06;97612.69;;;2.77;100.00
8581;BME280;4328;48.622;9.230;2024-03-08T07:46:33;97614.38;;;2.78;100.00
8581;BME280;4328;48.622;9.230;2024-03-08T07:49:00;97607.88;;;2.99;100.00
8581;BME280;4328;48.622;9.230;2024-03-08T07:51:26;97607.81;;;3.26;100.00
8581;BME280;4328;48.622;9.230;2024-03-08T07:53:53;97609.84;;;3.50;99.19
8581;BME280;4328;48.622;9.230;2024-03-08T07:56:20;97612.47;;;3.68;96.25
8581;BME280;4328;48.622;9.230;2024-03-08T07:58:47;97604.94;;;3.89;95.61
8581;BME280;4328;48.622;9.230;2024-03-08T08:01:17;97595.53;;;4.19;94.92
8581;BME280;4328;48.622;9.230;2024-03-08T08:03:44;97593.97;;;4.42;93.44
8581;BME280;4328;48.622;9.230;2024-03-08T08:06:10;97598.03;;;4.62;91.42
8581;BME280;4328;48.622;9.230;2024-03-08T08:08:41;97588.00;;;4.72;87.86
8581;BME280;4328;48.622;9.230;2024-03-08T08:11:08;97590.19;;;4.69;86.50
8581;BME280;4328;48.622;9.230;2024-03-08T08:13:36;97581.81;;;4.80;85.48
8581;BME280;4328;48.622;9.230;2024-03-08T08:16:04;97579.69;;;5.00;82.75
8581;BME280;4328;48.622;9.230;2024-03-08T08:18:33;97579.19;;;5.21;82.55
8581;BME280;4328;48.622;9.230;2024-03-08T08:21:00;97575.34;;;5.07;79.58
8581;BME280;4328;48.622;9.230;2024-03-08T08:23:26;97578.19;;;5.05;79.24
8581;BME280;4328;48.622;9.230;2024-03-08T08:25:54;97576.50;;;5.21;77.66
8581;BME280;4328;48.622;9.230;2024-03-08T08:28:21;97567.94;;;5.09;75.76
8581;BME280;4328;48.622;9.230;2024-03-08T08:30:47;97570.56;;;4.85;76.29
8581;BME280;4328;48.622;9.230;2024-03-08T08:33:14;97565.72;;;4.80;76.20
8581;BME280;4328;48.622;9.230;2024-03-08T08:35:42;97571.97;;;5.05;75.85
8581;BME280;4328;48.622;9.230;2024-03-08T08:38:09;97574.31;;;5.00;75.64
8581;BME280;4328;48.622;9.230;2024-03-08T08:40:37;97566.25;;;5.00;75.93
8581;BME280;4328;48.622;9.230;2024-03-08T08:43:03;97566.44;;;5.31;74.98
8581;BME280;4328;48.622;9.230;2024-03-08T08:45:30;97555.88;;;5.29;73.63
8581;BME280;4328;48.622;9.230;2024-03-08T08:47:57;97559.88;;;5.17;74.01
8581;BME280;4328;48.622;9.230;2024-03-08T08:50:25;97555.84;;;5.45;73.83
8581;BME280;4328;48.622;9.230;2024-03-08T08:52:55;97562.19;;;5.69;73.11
8581;BME280;4328;48.622;9.230;2024-03-08T08:55:22;97556.31;;;5.90;73.26
8581;BME280;4328;48.622;9.230;2024-03-08T08:57:50;97554.75;;;6.03;73.04
8581;BME280;4328;48.622;9.230;2024-03-08T09:00:18;97552.19;;;6.18;72.63
8581;BME280;4328;48.622;9.230;2024-03-08T09:02:46;97554.00;;;6.26;71.53
8581;BME280;4328;48.622;9.230;2024-03-08T09:05:13;97544.34;;;6.47;71.28
8581;BME280;4328;48.622;9.230;2024-03-08T09:07:42;97549.31;;;6.59;71.04
8581;BME280;4328;48.622;9.230;2024-03-08T09:10:11;97544.94;;;6.58;69.94
8581;BME280;4328;48.622;9.230;2024-03-08T09:12:39;97546.75;;;6.26;69.00
8581;BME280;4328;48.622;9.230;2024-03-08T09:15:07;97538.19;;;6.31;69.87
8581;BME280;4328;48.622;9.230;2024-03-08T09:17:36;97533.56;;;6.47;69.66
8581;BME280;4328;48.622;9.230;2024-03-08T09:20:05;97533.84;;;6.52;68.95
8581;BME280;4328;48.622;9.230;2024-03-08T09:22:32;97530.50;;;6.50;68.21
8581;BME280;4328;48.622;9.230;2024-03-08T09:24:59;97509.44;;;6.23;68.84
8581;BME280;4328;48.622;9.230;2024-03-08T09:27:26;97531.50;;;6.58;68.22
8581;BME280;4328;48.622;9.230;2024-03-08T09:29:53;97525.69;;;6.38;68.39
8581;BME280;4328;48.622;9.230;2024-03-08T09:32:20;97494.88;;;6.09;68.54
8581;BME280;4328;48.622;9.230;2024-03-08T09:34:48;97524.22;;;6.27;69.32
8581;BME280;4328;48.622;9.230;2024-03-08T09:37:15;97520.69;;;6.88;67.59
8581;BME280;4328;48.622;9.230;2024-03-08T09:39:42;97514.94;;;6.92;67.67
8581;BME280;4328;48.622;9.230;2024-03-08T09:42:09;97520.50;;;7.13;67.27
8581;BME280;4328;48.622;9.230;2024-03-08T09:44:44;97520.47;;;7.36;66.09
8581;BME280;4328;48.622;9.230;2024-03-08T09:47:12;97520.03;;;7.47;65.08
8581;BME280;4328;48.622;9.230;2024-03-08T09:49:40;97512.16;;;7.22;65.15
8581;BME280;4328;48.622;9.230;2024-03-08T09:52:07;97518.84;;;7.49;65.11
8581;BME280;4328;48.622;9.230;2024-03-08T09:54:35;97515.94;;;7.36;64.72
8581;BME280;4328;48.622;9.230;2024-03-08T09:57:03;97506.63;;;7.39;65.20
8581;BME280;4328;48.622;9.230;2024-03-08T09:59:30;97508.72;;;6.91;65.59
8581;BME280;4328;48.622;9.230;2024-03-08T10:02:14;97505.47;;;7.18;64.66
8581;BME280;4328;48.622;9.230;2024-03-08T10:04:41;97504.59;;;7.41;64.52
8581;BME280;4328;48.622;9.230;2024-03-08T10:07:08;97493.56;;;7.94;63.15
8581;BME280;4328;48.622;9.230;2024-03-08T10:09:35;97495.06;;;7.97;63.18
8581;BME280;4328;48.622;9.230;2024-03-08T10:12:01;97497.19;;;8.31;61.79
8581;BME280;4328;48.622;9.230;2024-03-08T10:14:28;97481.72;;;8.54;61.71
8581;BME280;4328;48.622;9.230;2024-03-08T10:16:55;97490.50;;;7.97;62.13
8581;BME280;4328;48.622;9.230;2024-03-08T10:19:26;97481.19;;;8.44;61.93
8581;BME280;4328;48.622;9.230;2024-03-08T10:21:53;97473.56;;;8.33;61.15
8581;BME280;4328;48.622;9.230;2024-03-08T10:24:22;97476.97;;;8.78;61.17
8581;BME280;4328;48.622;9.230;2024-03-08T10:26:51;97468.75;;;9.07;59.34
8581;BME280;4328;48.622;9.230;2024-03-08T10:29:18;97461.78;;;8.98;59.46
8581;BME280;4328;48.622;9.230;2024-03-08T10:31:45;97457.50;;;9.87;57.97
8581;BME280;4328;48.622;9.230;2024-03-08T10:34:12;97454.88;;;10.35;56.41
8581;BME280;4328;48.622;9.230;2024-03-08T10:36:40;97392.66;;;10.13;56.33
8581;BME280;4328;48.622;9.230;2024-03-08T10:39:14;97445.13;;;10.54;55.45
8581;BME280;4328;48.622;9.230;2024-03-08T10:41:52;97449.22;;;11.37;53.96
8581;BME280;4328;48.622;9.230;2024-03-08T10:44:30;97449.22;;;11.89;52.64
8581;BME280;4328;48.622;9.230;2024-03-08T10:47:00;97440.88;;;11.91;51.92
8581;BME280;4328;48.622;9.230;2024-03-08T10:49:31;97425.66;;;12.35;52.03
8581;BME280;4328;48.622;9.230;2024-03-08T10:52:03;97437.94;;;11.86;51.90
8581;BME280;4328;48.622;9.230;2024-03-08T10:54:31;97422.28;;;14.08;48.89
8581;BME280;4328;48.622;9.230;2024-03-08T10:57:01;97401.78;;;18.49;42.23
8581;BME280;4328;48.622;9.230;2024-03-08T10:59:29;97387.88;;;21.20;37.53
8581;BME280;4328;48.622;9.230;2024-03-08T11:01:57;97390.34;;;23.02;34.32
8581;BME280;4328;48.622;9.230;2024-03-08T11:04:24;97387.63;;;24.62;32.09
8581;BME280;4328;48.622;9.230;2024-03-08T11:06:52;97393.19;;;24.57;30.40
8581;BME280;4328;48.622;9.230;2024-03-08T11:09:30;97405.25;;;21.25;32.27
8581;BME280;4328;48.622;9.230;2024-03-08T11:12:24;97395.00;;;21.11;33.49
8581;BME280;4328;48.622;9.230;2024-03-08T11:14:52;97384.75;;;22.43;32.08
8581;BME280;4328;48.622;9.230;2024-03-08T11:17:26;97392.03;;;24.63;30.22
8581;BME280;4328;48.622;9.230;2024-03-08T11:20:09;97390.97;;;23.72;29.47
8581;BME280;4328;48.622;9.230;2024-03-08T11:22:41;97393.81;;;23.23;31.02
8581;BME280;4328;48.622;9.230;2024-03-08T11:25:31;97386.59;;;22.73;30.77
8581;BME280;4328;48.622;9.230;2024-03-08T11:28:19;97384.59;;;21.89;31.47
8581;BME280;4328;48.622;9.230;2024-03-08T11:31:22;97377.00;;;23.88;29.46
8581;BME280;4328;48.622;9.230;2024-03-08T11:33:50;97387.09;;;21.50;31.41
8581;BME280;4328;48.622;9.230;2024-03-08T11:36:20;97374.44;;;22.74;31.02
8581;BME280;4328;48.622;9.230;2024-03-08T11:38:48;97357.03;;;27.36;27.11
8581;BME280;4328;48.622;9.230;2024-03-08T11:41:16;97365.91;;;28.04;25.92
8581;BME280;4328;48.622;9.230;2024-03-08T11:43:44;97375.56;;;24.72;28.17
8581;BME280;4328;48.622;9.230;2024-03-08T11:46:12;97378.56;;;21.46;32.31
8581;BME280;4328;48.622;9.230;2024-03-08T11:48:39;97379.22;;;18.91;35.70
8581;BME280;4328;48.622;9.230;2024-03-08T11:51:07;97369.44;;;21.41;33.14
8581;BME280;4328;48.622;9.230;2024-03-08T11:53:33;97358.47;;;22.56;31.88
8581;BME280;4328;48.622;9.230;2024-03-08T11:56:06;97355.06;;;22.05;32.48
8581;BME280;4328;48.622;9.230;2024-03-08T11:58:35;97335.66;;;27.89;26.91
8581;BME280;4328;48.622;9.230;2024-03-08T12:01:03;97325.03;;;29.96;23.99
8581;BME280;4328;48.622;9.230;2024-03-08T12:03:31;97330.31;;;30.36;24.15
8581;BME280;4328;48.622;9.230;2024-03-08T12:05:59;97353.13;;;24.21;27.68
8581;BME280;4328;48.622;9.230;2024-03-08T12:08:26;97341.09;;;25.21;28.27
8581;BME280;4328;48.622;9.230;2024-03-08T12:10:54;97338.09;;;27.60;27.08
8581;BME280;4328;48.622;9.230;2024-03-08T12:13:25;97323.56;;;28.64;25.42
8581;BME280;4328;48.622;9.230;2024-03-08T12:15:56;97330.34;;;28.10;25.26
8581;BME280;4328;48.622;9.230;2024-03-08T12:18:24;97326.34;;;26.36;26.63
8581;BME280;4328;48.622;9.230;2024-03-08T12:20:50;97334.56;;;24.69;28.43
8581;BME280;4328;48.622;9.230;2024-03-08T12:23:17;97327.06;;;25.31;28.34
8581;BME280;4328;48.622;9.230;2024-03-08T12:25:44;97322.16;;;25.93;27.93
8581;BME280;4328;48.622;9.230;2024-03-08T12:28:12;97314.75;;;28.80;25.17
8581;BME280;4328;48.622;9.230;2024-03-08T12:30:46;97308.44;;;29.14;24.06
8581;BME280;4328;48.622;9.230;2024-03-08T12:33:15;97313.19;;;29.65;23.95
8581;BME280;4328;48.622;9.230;2024-03-08T12:35:50;97325.44;;;25.95;27.64
8581;BME280;4328;48.622;9.230;2024-03-08T12:38:19;97309.63;;;27.27;26.25
8581;BME280;4328;48.622;9.230;2024-03-08T12:40:50;97308.19;;;26.25;26.89
8581;BME280;4328;48.622;9.230;2024-03-08T12:43:17;97302.00;;;26.01;27.13
8581;BME280;4328;48.622;9.230;2024-03-08T12:45:44;97300.53;;;27.35;26.37
8581;BME280;4328;48.622;9.230;2024-03-08T12:48:12;97293.59;;;27.99;25.46
8581;BME280;4328;48.622;9.230;2024-03-08T12:50:41;97300.56;;;27.88;25.71
8581;BME280;4328;48.622;9.230;2024-03-08T12:53:10;97291.63;;;28.00;25.42
8581;BME280;4328;48.622;9.230;2024-03-08T12:55:37;97269.47;;;28.83;24.41
8581;BME280;4328;48.622;9.230;2024-03-08T12:58:04;97266.88;;;28.95;24.46
8581;BME280;4328;48.622;9.230;2024-03-08T13:00:32;97272.13;;;27.24;26.38
8581;BME280;4328;48.622;9.230;2024-03-08T13:03:01;97274.75;;;25.05;28.67
8581;BME280;4328;48.622;9.230;2024-03-08T13:05:28;97271.78;;;23.30;29.68
8581;BME280;4328;48.622;9.230;2024-03-08T13:07:56;97271.31;;;22.84;30.83
8581;BME280;4328;48.622;9.230;2024-03-08T13:10:23;97248.78;;;24.59;28.98
8581;BME280;4328;48.622;9.230;2024-03-08T13:12:50;97268.47;;;22.50;30.51
8581;BME280;4328;48.622;9.230;2024-03-08T13:15:18;97244.09;;;26.35;27.70
8581;BME280;4328;48.622;9.230;2024-03-08T13:17:46;97250.09;;;27.14;26.54
8581;BME280;4328;48.622;9.230;2024-03-08T13:20:13;97251.84;;;24.57;28.96
8581;BME280;4328;48.622;9.230;2024-03-08T13:22:45;97233.78;;;26.08;27.62
8581;BME280;4328;48.622;9.230;2024-03-08T13:25:13;97229.84;;;25.68;27.44